Time;durP1;ratioP1;P1;durP2;ratioP2;P2;SDS_P1;SDS_P2;PMS_P1;PMS_P2;Temp;Humidity;BMP_temperature;BMP_pressure;BME280_temperature;BME280_humidity;BME280_pressure;Samples;Min_cycle;Max_cycle;Signal;HPM_P1;HPM_P2
2020/12/18 00:00:23;;;;;;;5.80;2.22;;;5.80;99.90;;;;;;5032340;28;20044;-88
2020/12/18 00:02:49;;;;;;;7.05;2.58;;;5.70;99.90;;;;;;5032575;28;20039;-90
2020/12/18 00:05:15;;;;;;;6.03;2.78;;;5.70;99.90;;;;;;5031609;28;20051;-90
2020/12/18 00:07:42;;;;;;;5.95;2.33;;;5.70;99.90;;;;;;5028505;28;20128;-88
2020/12/18 00:10:08;;;;;;;4.15;2.58;;;5.70;99.90;;;;;;5025539;28;20050;-91
2020/12/18 00:12:33;;;;;;;6.85;2.85;;;5.70;99.90;;;;;;5013372;28;20057;-88
2020/12/18 00:14:59;;;;;;;5.07;3.60;;;5.80;99.90;;;;;;5032552;28;20029;-88
2020/12/18 00:17:24;;;;;;;8.38;3.00;;;5.70;99.90;;;;;;5031600;28;20032;-88
2020/12/18 00:19:50;;;;;;;6.72;2.83;;;5.70;99.90;;;;;;5031914;28;20128;-87
2020/12/18 00:22:16;;;;;;;5.97;2.90;;;5.70;99.90;;;;;;5031667;28;20040;-87
2020/12/18 00:24:43;;;;;;;7.97;3.63;;;5.70;99.90;;;;;;5032015;28;20041;-88
2020/12/18 00:27:09;;;;;;;7.65;2.78;;;5.70;99.90;;;;;;5031837;28;20035;-89
2020/12/18 00:29:35;;;;;;;5.28;3.60;;;5.60;99.90;;;;;;5032103;28;20032;-90
2020/12/18 00:32:04;;;;;;;6.72;2.85;;;5.60;99.90;;;;;;5031919;28;20123;-87
2020/12/18 00:34:29;;;;;;;8.32;2.72;;;5.70;99.90;;;;;;5031542;28;20037;-87
2020/12/18 00:36:55;;;;;;;12.13;3.38;;;5.70;99.90;;;;;;5031814;28;20035;-89
2020/12/18 00:39:20;;;;;;;5.85;2.67;;;5.60;99.90;;;;;;5031575;28;20099;-87
2020/12/18 00:41:53;;;;;;;9.02;2.97;;;5.60;99.90;;;;;;5031782;28;20025;-89
2020/12/18 00:44:21;;;;;;;7.38;2.53;;;5.60;99.90;;;;;;5031540;28;20063;-89
2020/12/18 00:46:47;;;;;;;7.80;3.92;;;5.60;99.90;;;;;;5031466;28;20488;-88
2020/12/18 00:49:13;;;;;;;11.52;3.33;;;5.80;99.90;;;;;;5031576;28;20029;-89
2020/12/18 00:51:39;;;;;;;9.75;3.70;;;5.70;99.90;;;;;;5031570;28;20036;-89
2020/12/18 00:54:04;;;;;;;6.80;2.97;;;5.90;99.90;;;;;;5031612;28;20435;-88
2020/12/18 00:56:32;;;;;;;6.82;2.92;;;5.90;99.90;;;;;;5031584;28;20035;-89
2020/12/18 00:58:57;;;;;;;7.70;3.13;;;5.90;99.90;;;;;;5031570;28;20037;-87
2020/12/18 01:01:23;;;;;;;7.32;2.92;;;5.80;99.90;;;;;;5031459;28;20037;-88
2020/12/18 01:03:49;;;;;;;6.15;2.70;;;5.80;99.90;;;;;;5031270;28;20029;-87
2020/12/18 01:06:17;;;;;;;5.60;1.92;;;5.80;99.90;;;;;;5024946;28;20129;-87
2020/12/18 01:08:57;;;;;;;8.20;3.70;;;5.70;99.90;;;;;;5042088;28;20040;-88
2020/12/18 01:11:26;;;;;;;6.87;3.23;;;5.90;99.90;;;;;;5028316;28;20025;-88
2020/12/18 01:13:52;;;;;;;11.80;3.83;;;5.90;99.90;;;;;;5044541;28;20064;-88
2020/12/18 01:16:18;;;;;;;8.45;3.00;;;5.90;99.90;;;;;;5027959;28;20030;-88
2020/12/18 01:18:51;;;;;;;9.80;2.90;;;5.90;99.90;;;;;;5028106;28;20044;-89
2020/12/18 01:21:17;;;;;;;9.45;4.32;;;6.00;99.90;;;;;;5028045;28;20029;-88
2020/12/18 01:23:42;;;;;;;6.82;3.00;;;6.00;99.90;;;;;;5027911;28;20029;-88
2020/12/18 01:26:12;;;;;;;5.40;2.85;;;5.80;99.90;;;;;;5027882;28;20026;-88
2020/12/18 01:28:38;;;;;;;8.07;3.72;;;5.90;99.90;;;;;;5029505;28;20021;-87
2020/12/18 01:31:04;;;;;;;6.05;2.55;;;5.90;99.90;;;;;;5048130;28;20632;-87
2020/12/18 01:33:33;;;;;;;9.77;3.25;;;5.80;99.90;;;;;;5031415;28;20080;-88
2020/12/18 01:36:02;;;;;;;4.32;2.72;;;5.80;99.90;;;;;;5031677;28;20087;-88
2020/12/18 01:38:27;;;;;;;5.88;2.80;;;5.70;99.90;;;;;;5031750;28;20038;-88
2020/12/18 01:40:53;;;;;;;6.70;2.15;;;5.60;99.90;;;;;;5048053;28;20029;-86
2020/12/18 01:43:19;;;;;;;8.52;1.88;;;5.60;99.90;;;;;;5031560;28;20024;-87
2020/12/18 01:45:45;;;;;;;6.75;3.03;;;5.80;99.90;;;;;;5031535;28;20033;-86
2020/12/18 01:48:13;;;;;;;9.32;3.40;;;5.80;99.90;;;;;;5031424;28;20036;-88
2020/12/18 01:50:48;;;;;;;5.05;2.75;;;5.70;99.90;;;;;;5031476;28;20029;-87
2020/12/18 01:53:14;;;;;;;9.35;3.75;;;5.70;99.90;;;;;;5031287;28;20040;-88
2020/12/18 01:56:07;;;;;;;10.82;3.55;;;5.70;99.90;;;;;;5017705;28;20030;-91
2020/12/18 01:58:38;;;;;;;8.50;3.42;;;5.70;99.90;;;;;;5031257;28;20038;-88
2020/12/18 02:01:09;;;;;;;9.40;3.33;;;5.80;99.90;;;;;;5032639;28;20051;-87
2020/12/18 02:03:44;;;;;;;5.07;2.40;;;5.70;99.90;;;;;;5031755;28;20489;-87
2020/12/18 02:06:18;;;;;;;9.85;2.88;;;5.70;99.90;;;;;;5031675;28;20025;-87
2020/12/18 02:08:57;;;;;;;5.07;2.90;;;5.70;99.90;;;;;;5015987;28;20048;-87
2020/12/18 02:11:37;;;;;;;9.68;3.88;;;5.60;99.90;;;;;;5030908;28;20040;-89
2020/12/18 02:14:12;;;;;;;12.98;5.90;;;5.70;99.90;;;;;;5011201;28;20032;-89
2020/12/18 02:16:40;;;;;;;10.32;5.03;;;5.80;99.90;;;;;;5027904;28;20057;-87
2020/12/18 02:19:11;;;;;;;7.45;4.30;;;5.70;99.90;;;;;;5031286;28;20042;-88
2020/12/18 02:21:39;;;;;;;7.30;4.90;;;5.70;99.90;;;;;;5030764;28;20035;-88
2020/12/18 02:24:10;;;;;;;9.15;5.32;;;5.60;99.90;;;;;;5030753;28;20040;-90
2020/12/18 02:26:37;;;;;;;11.68;5.55;;;5.70;99.90;;;;;;5030498;28;20039;-87
2020/12/18 02:29:05;;;;;;;7.35;4.15;;;5.70;99.90;;;;;;5030921;28;20018;-89
2020/12/18 02:31:42;;;;;;;7.30;3.17;;;5.60;99.90;;;;;;5030637;28;20044;-88
2020/12/18 02:34:28;;;;;;;6.63;2.97;;;5.60;99.90;;;;;;5030572;28;20044;-87
2020/12/18 02:37:01;;;;;;;6.33;2.90;;;5.60;99.90;;;;;;5030587;28;20068;-88
2020/12/18 02:39:31;;;;;;;;;;;5.60;99.90;;;;;;5014542;28;20305;-89
2020/12/18 02:42:00;;;;;;;5.47;2.00;;;5.60;99.90;;;;;;5030536;28;19948;-87
2020/12/18 02:44:44;;;;;;;7.38;2.47;;;5.50;99.90;;;;;;5030557;28;20486;-88
2020/12/18 02:47:28;;;;;;;5.80;1.85;;;5.50;99.90;;;;;;5033373;28;20028;-87
2020/12/18 02:49:53;;;;;;;5.82;2.15;;;5.40;99.90;;;;;;5030635;28;20033;-86
2020/12/18 02:52:19;;;;;;;4.60;1.83;;;5.50;99.90;;;;;;5030016;28;20386;-86
2020/12/18 02:55:10;;;;;;;7.47;2.33;;;5.40;99.90;;;;;;5034097;28;20066;-89
2020/12/18 02:57:56;;;;;;;5.25;1.75;;;5.60;99.90;;;;;;5012876;28;20029;-87
2020/12/18 03:00:26;;;;;;;5.50;2.05;;;5.40;99.90;;;;;;5030381;28;20038;-87
2020/12/18 03:02:53;;;;;;;8.02;2.55;;;5.50;99.90;;;;;;5030102;28;20036;-87
2020/12/18 03:05:22;;;;;;;7.30;2.47;;;5.50;99.90;;;;;;5029735;28;20029;-87
2020/12/18 03:07:55;;;;;;;5.75;2.30;;;5.50;99.90;;;;;;5028066;28;20164;-88
2020/12/18 03:10:20;;;;;;;3.60;1.58;;;5.50;99.90;;;;;;5013466;28;20116;-87
2020/12/18 03:12:46;;;;;;;6.20;2.20;;;5.50;99.90;;;;;;5029701;28;20033;-87
2020/12/18 03:15:12;;;;;;;7.07;2.13;;;5.50;99.90;;;;;;5026584;28;20053;-86
2020/12/18 03:17:54;;;;;;;6.13;1.60;;;5.50;99.90;;;;;;5014453;28;20025;-87
2020/12/18 03:20:19;;;;;;;6.65;1.67;;;5.40;99.90;;;;;;5029862;28;20068;-86
2020/12/18 03:23:03;;;;;;;6.25;2.00;;;5.50;99.90;;;;;;5032336;28;20152;-87
2020/12/18 03:25:55;;;;;;;4.65;1.95;;;5.50;99.90;;;;;;5033305;28;20173;-87
2020/12/18 03:28:27;;;;;;;6.07;2.13;;;5.60;99.90;;;;;;5030558;28;20044;-86
2020/12/18 03:30:53;;;;;;;6.35;2.13;;;5.40;99.90;;;;;;5029697;28;20032;-85
2020/12/18 03:33:19;;;;;;;5.35;1.70;;;5.50;99.90;;;;;;5029187;28;20057;-87
2020/12/18 03:35:46;;;;;;;6.78;1.98;;;5.40;99.90;;;;;;5013058;28;20088;-87
2020/12/18 03:38:12;;;;;;;4.32;1.42;;;5.50;99.90;;;;;;5029115;28;20040;-89
2020/12/18 03:40:39;;;;;;;6.72;1.83;;;5.50;99.90;;;;;;5029558;28;20048;-88
2020/12/18 03:43:15;;;;;;;6.50;2.47;;;5.50;99.90;;;;;;5030527;28;20068;-87
2020/12/18 03:45:40;;;;;;;5.57;2.22;;;5.50;99.90;;;;;;5029246;28;20052;-88
2020/12/18 03:48:32;;;;;;;7.00;1.60;;;5.60;99.90;;;;;;5010188;28;20060;-86
2020/12/18 03:51:18;;;;;;;6.57;1.80;;;5.50;99.90;;;;;;5031817;28;20025;-87
2020/12/18 03:53:44;;;;;;;8.02;2.33;;;5.50;99.90;;;;;;5028906;28;20068;-87
2020/12/18 03:56:23;;;;;;;5.90;2.45;;;5.60;99.90;;;;;;5045877;28;20045;-86
2020/12/18 03:59:13;;;;;;;8.32;2.35;;;5.60;99.90;;;;;;5032190;28;20339;-88
2020/12/18 04:01:59;;;;;;;7.40;1.98;;;5.50;99.90;;;;;;5031401;28;20052;-87
2020/12/18 04:04:24;;;;;;;5.88;1.85;;;5.50;99.90;;;;;;5028689;28;20030;-87
2020/12/18 04:06:53;;;;;;;6.00;2.78;;;5.50;99.90;;;;;;5020483;28;20106;-89
2020/12/18 04:09:22;;;;;;;5.68;2.28;;;5.70;99.90;;;;;;5012840;28;20026;-88
2020/12/18 04:11:54;;;;;;;8.15;2.17;;;5.60;99.90;;;;;;5013339;28;20061;-87
2020/12/18 04:14:27;;;;;;;7.70;1.83;;;5.60;99.90;;;;;;5028225;28;20033;-89
2020/12/18 04:17:05;;;;;;;5.75;2.00;;;5.60;99.90;;;;;;5002773;28;20026;-88
2020/12/18 04:19:32;;;;;;;8.18;2.42;;;5.60;99.90;;;;;;5025335;28;20041;-87
2020/12/18 04:21:59;;;;;;;7.68;2.05;;;5.70;99.90;;;;;;5028098;28;20060;-86
2020/12/18 04:24:47;;;;;;;6.53;2.15;;;5.60;99.90;;;;;;5031911;28;20063;-87
2020/12/18 04:27:13;;;;;;;6.25;1.67;;;5.70;99.90;;;;;;5028631;28;20056;-86
2020/12/18 04:29:39;;;;;;;8.52;1.83;;;5.60;99.90;;;;;;5028504;28;20029;-87
2020/12/18 04:32:06;;;;;;;7.90;2.05;;;5.70;99.90;;;;;;5028548;28;20063;-87
2020/12/18 04:34:32;;;;;;;4.97;2.25;;;5.60;99.90;;;;;;5028224;28;20026;-87
2020/12/18 04:37:16;;;;;;;4.53;1.88;;;5.50;99.90;;;;;;5028807;28;20029;-88
2020/12/18 04:40:03;;;;;;;2.67;1.65;;;5.60;99.90;;;;;;5031189;28;20045;-87
2020/12/18 04:42:34;;;;;;;4.63;1.98;;;5.60;99.90;;;;;;5012526;28;20093;-88
2020/12/18 04:45:05;;;;;;;4.97;1.65;;;5.40;99.90;;;;;;5012712;28;20057;-89
2020/12/18 04:47:36;;;;;;;;;;;5.40;99.90;;;;;;5028857;28;20029;-89
2020/12/18 04:50:02;;;;;;;4.85;2.13;;;5.30;99.90;;;;;;5028401;28;19909;-90
2020/12/18 04:52:29;;;;;;;3.42;1.30;;;5.30;99.90;;;;;;5044965;28;20034;-87
2020/12/18 04:54:59;;;;;;;3.92;1.52;;;5.20;99.90;;;;;;5027984;28;20025;-87
2020/12/18 04:57:59;;;;;;;8.90;1.88;;;5.20;99.90;;;;;;5032789;28;20060;-90
2020/12/18 05:00:28;;;;;;;5.25;2.17;;;5.20;99.90;;;;;;5011848;28;20042;-89
2020/12/18 05:03:14;;;;;;;4.45;2.03;;;5.20;99.90;;;;;;5031677;28;20052;-87
2020/12/18 05:05:41;;;;;;;3.58;2.20;;;5.20;99.90;;;;;;5015891;28;20029;-87
2020/12/18 05:08:12;;;;;;;5.72;1.92;;;5.20;99.90;;;;;;5028803;28;20046;-92
2020/12/18 05:10:41;;;;;;;3.80;1.90;;;5.10;99.90;;;;;;5013123;28;20080;-86
2020/12/18 05:13:15;;;;;;;8.85;2.55;;;5.10;99.90;;;;;;5013672;28;20029;-87
2020/12/18 05:15:47;;;;;;;4.32;2.45;;;5.10;99.90;;;;;;5039684;28;20040;-89
2020/12/18 05:18:45;;;;;;;5.97;2.35;;;5.10;99.90;;;;;;5048505;28;20041;-88
2020/12/18 05:21:26;;;;;;;7.43;2.90;;;5.10;99.90;;;;;;5048814;28;20087;-85
2020/12/18 05:23:54;;;;;;;6.75;2.80;;;5.10;99.90;;;;;;5048206;28;20025;-88
2020/12/18 05:26:28;;;;;;;5.65;2.42;;;5.00;99.90;;;;;;5042017;28;20025;-88
2020/12/18 05:29:08;;;;;;;8.23;2.63;;;5.10;99.90;;;;;;5021787;28;20030;-88
2020/12/18 05:32:01;;;;;;;5.72;1.70;;;5.00;99.90;;;;;;5029616;28;20775;-89
2020/12/18 05:34:57;;;;;;;7.38;1.98;;;5.00;99.90;;;;;;5021573;28;20056;-87
2020/12/18 05:37:36;;;;;;;3.50;1.75;;;5.00;99.90;;;;;;5019201;28;20033;-90
2020/12/18 05:40:11;;;;;;;5.57;2.38;;;5.00;99.90;;;;;;5045634;28;20057;-91
2020/12/18 05:42:53;;;;;;;7.82;3.47;;;5.00;99.90;;;;;;5037418;28;20026;-88
2020/12/18 05:45:26;;;;;;;4.40;2.15;;;5.10;99.90;;;;;;5048649;28;20040;-87
2020/12/18 05:48:15;;;;;;;9.35;2.78;;;5.00;99.90;;;;;;5031954;28;20030;-87
2020/12/18 05:50:51;;;;;;;7.53;2.13;;;5.00;99.90;;;;;;5032937;28;20037;-87
2020/12/18 05:53:18;;;;;;;4.15;1.80;;;5.00;99.90;;;;;;5047561;28;20033;-87
2020/12/18 05:55:52;;;;;;;3.58;1.70;;;5.00;99.90;;;;;;5036893;28;20049;-89
2020/12/18 05:58:25;;;;;;;4.57;1.70;;;5.00;99.90;;;;;;5058553;28;20547;-88
2020/12/18 06:01:04;;;;;;;4.25;1.58;;;5.00;99.90;;;;;;5017144;28;20088;-88
2020/12/18 06:04:08;;;;;;;4.45;2.00;;;4.90;99.90;;;;;;5051589;28;20066;-87
2020/12/18 06:06:35;;;;;;;5.28;2.35;;;4.90;99.90;;;;;;5059425;28;20053;-89
2020/12/18 06:09:02;;;;;;;5.70;2.10;;;4.90;99.90;;;;;;5066524;28;20032;-89
2020/12/18 06:11:31;;;;;;;5.88;2.33;;;4.90;99.90;;;;;;5051382;28;20561;-89
2020/12/18 06:14:04;;;;;;;3.55;1.88;;;5.00;99.90;;;;;;5051372;28;20373;-91
2020/12/18 06:16:53;;;;;;;6.32;2.65;;;4.90;99.90;;;;;;5052910;28;20033;-88
2020/12/18 06:19:43;;;;;;;6.30;2.40;;;5.00;99.90;;;;;;5052928;28;20067;-88
2020/12/18 06:22:13;;;;;;;6.85;2.70;;;4.90;99.90;;;;;;5067257;28;20040;-88
2020/12/18 06:25:14;;;;;;;7.40;4.03;;;4.90;99.90;;;;;;5058931;28;20040;-88
2020/12/18 06:28:06;;;;;;;4.78;2.20;;;4.90;99.90;;;;;;5051890;28;20040;-87
2020/12/18 06:31:10;;;;;;;3.95;1.83;;;4.90;99.90;;;;;;5052274;28;20025;-87
2020/12/18 06:33:56;;;;;;;11.13;2.63;;;4.90;99.90;;;;;;5067181;28;20097;-87
2020/12/18 06:37:00;;;;;;;7.13;2.63;;;5.00;99.90;;;;;;5056968;28;20060;-87
2020/12/18 06:39:55;;;;;;;10.10;3.13;;;5.00;99.90;;;;;;5034497;28;20037;-87
2020/12/18 06:42:46;;;;;;;5.75;2.92;;;5.00;99.90;;;;;;5043152;28;20033;-86
2020/12/18 06:45:35;;;;;;;6.97;2.05;;;5.00;99.90;;;;;;5010286;28;20573;-89
2020/12/18 06:48:25;;;;;;;6.00;1.83;;;5.00;99.90;;;;;;5047058;28;20037;-86
2020/12/18 06:51:28;;;;;;;5.22;2.17;;;5.10;99.90;;;;;;5027360;28;20243;-87
2020/12/18 06:54:12;;;;;;;5.97;1.83;;;5.10;99.90;;;;;;5027005;28;20041;-87
2020/12/18 06:56:46;;;;;;;8.45;2.65;;;5.10;99.90;;;;;;5028194;28;20030;-90
2020/12/18 06:59:23;;;;;;;5.07;2.05;;;5.20;99.90;;;;;;5026850;28;20061;-88
2020/12/18 07:01:48;;;;;;;6.57;1.60;;;5.10;99.90;;;;;;5026857;28;20030;-88
2020/12/18 07:04:18;;;;;;;5.28;1.80;;;5.10;99.90;;;;;;5026806;28;20089;-92
2020/12/18 07:06:44;;;;;;;9.88;2.13;;;5.20;99.90;;;;;;5032857;28;20116;-88
2020/12/18 07:09:10;;;;;;;3.75;1.25;;;5.20;99.90;;;;;;5063094;28;20071;-86
2020/12/18 07:11:36;;;;;;;6.63;1.95;;;5.20;99.90;;;;;;5046233;28;20064;-88
2020/12/18 07:14:03;;;;;;;3.92;1.70;;;5.10;99.90;;;;;;5046566;28;20072;-88
2020/12/18 07:16:29;;;;;;;7.28;1.80;;;5.20;99.90;;;;;;5029690;28;20091;-84
2020/12/18 07:19:01;;;;;;;4.93;2.00;;;5.10;99.90;;;;;;5029556;28;20050;-88
2020/12/18 07:21:27;;;;;;;8.80;1.83;;;5.20;99.90;;;;;;5029751;28;20029;-88
2020/12/18 07:23:52;;;;;;;4.47;1.42;;;5.20;99.90;;;;;;5029416;28;20044;-89
2020/12/18 07:26:19;;;;;;;4.88;1.42;;;5.30;99.90;;;;;;5046086;28;20025;-90
2020/12/18 07:28:46;;;;;;;5.25;1.40;;;5.30;99.90;;;;;;5029736;28;20273;-88
2020/12/18 07:31:24;;;;;;;4.03;1.63;;;5.30;99.90;;;;;;5029584;28;20033;-86
2020/12/18 07:33:55;;;;;;;4.88;1.27;;;5.40;99.90;;;;;;5029312;28;20117;-89
2020/12/18 07:36:22;;;;;;;5.40;1.23;;;5.40;99.90;;;;;;5029449;28;20040;-90
2020/12/18 07:38:48;;;;;;;7.75;1.48;;;5.30;99.90;;;;;;5045948;28;20037;-89
2020/12/18 07:41:14;;;;;;;4.25;1.40;;;5.40;99.90;;;;;;5029339;28;20041;-89
2020/12/18 07:43:42;;;;;;;5.35;1.45;;;5.40;99.90;;;;;;5045598;28;20034;-88
2020/12/18 07:46:12;;;;;;;3.20;1.02;;;5.50;99.90;;;;;;5028790;28;20045;-86
2020/12/18 07:48:41;;;;;;;3.75;1.15;;;5.50;99.90;;;;;;5028655;28;20029;-87
2020/12/18 07:51:18;;;;;;;5.50;1.77;;;5.50;99.90;;;;;;5028770;28;20049;-86
2020/12/18 07:53:44;;;;;;;4.20;1.17;;;5.60;99.90;;;;;;5028369;28;20029;-87
2020/12/18 07:56:16;;;;;;;5.57;1.35;;;5.60;99.90;;;;;;5028445;28;20040;-85
2020/12/18 07:58:56;;;;;;;4.00;1.15;;;5.60;99.90;;;;;;5028398;28;20037;-86
2020/12/18 08:01:27;;;;;;;4.28;1.23;;;5.50;99.90;;;;;;5028565;28;20101;-85
2020/12/18 08:03:56;;;;;;;4.20;1.40;;;5.60;99.90;;;;;;5028663;28;20096;-86
2020/12/18 08:06:26;;;;;;;5.65;1.08;;;5.60;99.90;;;;;;5031621;28;20033;-87
2020/12/18 08:09:00;;;;;;;6.03;1.27;;;5.50;99.90;;;;;;5046893;28;20062;-87
2020/12/18 08:11:27;;;;;;;4.57;1.63;;;5.60;99.90;;;;;;5031513;28;20098;-87
2020/12/18 08:13:58;;;;;;;4.88;1.40;;;5.60;99.90;;;;;;5048190;28;20033;-86
2020/12/18 08:16:28;;;;;;;3.90;1.05;;;5.60;99.90;;;;;;5044860;28;20043;-86
2020/12/18 08:19:07;;;;;;;2.80;0.80;;;5.60;99.90;;;;;;5046925;28;20042;-87
2020/12/18 08:21:40;;;;;;;7.25;1.30;;;5.70;99.90;;;;;;5039385;28;20028;-88
2020/12/18 08:24:30;;;;;;;3.65;0.98;;;5.80;99.90;;;;;;5048063;28;20037;-89
2020/12/18 08:27:11;;;;;;;2.92;0.68;;;5.70;99.90;;;;;;5047810;28;20040;-89
2020/12/18 08:29:38;;;;;;;4.90;0.90;;;5.70;99.90;;;;;;5047965;28;20088;-88
2020/12/18 08:32:06;;;;;;;5.13;0.82;;;5.70;99.90;;;;;;5047453;28;20064;-93
2020/12/18 08:34:33;;;;;;;4.63;0.60;;;5.70;99.90;;;;;;5047774;28;20033;-89
2020/12/18 08:36:59;;;;;;;3.13;0.80;;;5.70;99.90;;;;;;5047728;28;20037;-87
2020/12/18 08:39:33;;;;;;;4.43;0.80;;;5.80;99.90;;;;;;5063610;28;20041;-88
2020/12/18 08:42:00;;;;;;;4.53;0.90;;;5.90;99.90;;;;;;5065379;28;20029;-88
2020/12/18 08:44:29;;;;;;;4.80;1.20;;;5.90;99.90;;;;;;5047721;28;20033;-92
2020/12/18 08:46:56;;;;;;;4.93;1.00;;;6.00;99.90;;;;;;5031364;28;20040;-87
2020/12/18 08:49:24;;;;;;;4.20;0.90;;;6.00;99.90;;;;;;5047639;28;20037;-88
2020/12/18 08:51:51;;;;;;;5.50;1.33;;;6.00;99.90;;;;;;5047404;28;20064;-90
2020/12/18 08:54:35;;;;;;;5.18;1.70;;;6.00;99.90;;;;;;5047614;28;20400;-88
2020/12/18 08:57:25;;;;;;;3.63;0.70;;;6.00;99.90;;;;;;5047812;28;20120;-86
2020/12/18 09:00:13;;;;;;;5.72;1.10;;;6.20;99.90;;;;;;5029402;28;20068;-89
2020/12/18 09:03:00;;;;;;;3.03;0.73;;;6.20;99.90;;;;;;5017609;28;20068;-87
2020/12/18 09:05:28;;;;;;;2.47;0.73;;;6.30;99.90;;;;;;5039197;28;20048;-87
2020/12/18 09:08:05;;;;;;;3.72;0.75;;;6.30;99.90;;;;;;5052696;28;20055;-89
2020/12/18 09:10:32;;;;;;;3.75;0.95;;;6.40;99.90;;;;;;5027024;28;20038;-87
2020/12/18 09:13:15;;;;;;;3.38;1.02;;;6.50;99.90;;;;;;5038128;28;20048;-87
2020/12/18 09:15:42;;;;;;;5.60;0.93;;;6.60;99.90;;;;;;5026191;28;20541;-86
2020/12/18 09:18:10;;;;;;;4.40;0.95;;;6.70;99.90;;;;;;5051110;28;20029;-87
2020/12/18 09:20:41;;;;;;;5.28;0.98;;;6.70;99.90;;;;;;5027078;28;20049;-87
2020/12/18 09:23:09;;;;;;;8.35;1.50;;;6.70;99.90;;;;;;5040054;28;20060;-86
2020/12/18 09:25:37;;;;;;;4.50;0.82;;;6.80;99.90;;;;;;5021073;28;20061;-86
2020/12/18 09:28:03;;;;;;;3.45;0.73;;;6.80;99.90;;;;;;5050458;28;20041;-86
2020/12/18 09:30:31;;;;;;;6.18;0.80;;;6.80;99.90;;;;;;5038540;28;20025;-86
2020/12/18 09:33:10;;;;;;;2.95;0.85;;;6.80;99.90;;;;;;5047838;28;20053;-86
2020/12/18 09:35:36;;;;;;;6.68;1.00;;;6.80;99.90;;;;;;5029461;28;20108;-87
2020/12/18 09:38:02;;;;;;;4.63;1.33;;;6.90;99.90;;;;;;5027347;28;20029;-85
2020/12/18 09:40:27;;;;;;;3.70;1.00;;;6.90;99.90;;;;;;5013841;28;20052;-86
2020/12/18 09:42:53;;;;;;;5.05;1.10;;;6.90;99.90;;;;;;5035309;28;20037;-85
2020/12/18 09:45:19;;;;;;;3.92;0.90;;;7.00;99.90;;;;;;5037974;28;20404;-86
2020/12/18 09:47:44;;;;;;;4.20;0.93;;;7.00;99.90;;;;;;5034975;28;20017;-86
2020/12/18 09:50:10;;;;;;;4.38;0.90;;;7.00;99.90;;;;;;5039975;28;20140;-87
2020/12/18 09:52:35;;;;;;;3.90;0.88;;;7.00;99.90;;;;;;5055170;28;20033;-87
2020/12/18 09:55:01;;;;;;;2.85;0.85;;;7.00;99.90;;;;;;5031419;28;20091;-88
2020/12/18 09:57:26;;;;;;;3.78;1.10;;;7.10;99.90;;;;;;5036889;28;20033;-87
2020/12/18 09:59:52;;;;;;;5.70;0.90;;;7.20;99.90;;;;;;5050203;28;20037;-89
2020/12/18 10:02:18;;;;;;;4.55;1.38;;;7.20;99.90;;;;;;5051437;28;20025;-90
2020/12/18 10:04:43;;;;;;;6.75;1.00;;;7.30;99.90;;;;;;5040021;28;20117;-86
2020/12/18 10:07:09;;;;;;;2.22;0.70;;;7.30;99.90;;;;;;5055239;28;20060;-86
2020/12/18 10:09:34;;;;;;;5.43;1.20;;;7.30;99.90;;;;;;5058273;28;20092;-89
2020/12/18 10:12:00;;;;;;;3.65;0.80;;;7.30;99.90;;;;;;5057036;28;20029;-87
2020/12/18 10:14:26;;;;;;;3.65;1.08;;;7.40;99.90;;;;;;5033217;28;20444;-90
2020/12/18 10:16:51;;;;;;;2.17;0.70;;;7.40;99.90;;;;;;5036293;28;20028;-87
2020/12/18 10:19:17;;;;;;;5.68;1.00;;;7.50;99.90;;;;;;5057313;28;20045;-89
2020/12/18 10:21:43;;;;;;;4.88;1.10;;;7.50;99.90;;;;;;5058086;28;20033;-90
2020/12/18 10:24:09;;;;;;;9.52;1.00;;;7.60;99.90;;;;;;5057271;28;20063;-88
2020/12/18 10:26:34;;;;;;;4.18;1.20;;;7.60;99.90;;;;;;5044943;28;20056;-87
2020/12/18 10:29:00;;;;;;;3.72;1.05;;;7.60;99.90;;;;;;5049979;28;20032;-87
2020/12/18 10:31:26;;;;;;;5.78;0.90;;;7.70;99.90;;;;;;5052462;28;20040;-88
2020/12/18 10:33:51;;;;;;;3.10;1.08;;;7.70;99.90;;;;;;5050293;28;20029;-86
2020/12/18 10:36:17;;;;;;;5.22;1.42;;;7.80;99.90;;;;;;5029708;28;20047;-88
2020/12/18 10:38:43;;;;;;;4.60;0.90;;;7.80;99.90;;;;;;5049838;28;20039;-90
2020/12/18 10:41:09;;;;;;;5.30;0.90;;;7.80;99.90;;;;;;5056869;28;20048;-89
2020/12/18 10:43:35;;;;;;;5.28;1.67;;;7.90;99.90;;;;;;5029329;28;20033;-87
2020/12/18 10:46:00;;;;;;;3.88;0.93;;;8.00;99.90;;;;;;5054769;28;20079;-89
2020/12/18 10:48:26;;;;;;;6.25;1.10;;;8.00;99.90;;;;;;5053979;28;20063;-86
2020/12/18 10:50:52;;;;;;;4.32;1.20;;;8.10;99.90;;;;;;5036121;28;20437;-88
2020/12/18 10:53:17;;;;;;;4.40;1.65;;;8.10;99.90;;;;;;5043321;28;20036;-87
2020/12/18 10:55:43;;;;;;;5.97;1.40;;;8.20;99.90;;;;;;5053661;28;20167;-89
2020/12/18 10:58:08;;;;;;;7.20;1.75;;;8.20;99.90;;;;;;5050341;28;20052;-91
2020/12/18 11:00:34;;;;;;;3.75;1.20;;;8.30;99.90;;;;;;5053544;28;20089;-89
2020/12/18 11:02:59;;;;;;;2.17;1.13;;;8.30;99.90;;;;;;5032437;28;20104;-87
2020/12/18 11:05:25;;;;;;;3.83;0.88;;;8.40;99.90;;;;;;5053296;22;20056;-88
2020/12/18 11:07:51;;;;;;;2.65;1.00;;;8.50;99.90;;;;;;5072412;28;20092;-88
2020/12/18 11:10:17;;;;;;;2.92;1.35;;;8.50;99.90;;;;;;5068519;28;20033;-87
2020/12/18 11:12:42;;;;;;;9.15;1.20;;;8.60;99.90;;;;;;5063356;28;20033;-89
2020/12/18 11:15:09;;;;;;;3.83;0.93;;;8.70;99.90;;;;;;5070543;28;20044;-88
2020/12/18 11:17:35;;;;;;;6.57;1.02;;;8.60;99.90;;;;;;5047214;28;20063;-87
2020/12/18 11:20:00;;;;;;;9.02;1.67;;;8.70;99.90;;;;;;5067669;28;20049;-90
2020/12/18 11:22:26;;;;;;;3.47;1.42;;;8.80;99.90;;;;;;5048454;28;20067;-88
2020/12/18 11:24:51;;;;;;;5.43;1.17;;;8.90;99.90;;;;;;5065212;28;20029;-87
2020/12/18 11:27:17;;;;;;;4.57;1.35;;;8.90;99.90;;;;;;5066535;28;20028;-87
2020/12/18 11:29:43;;;;;;;5.00;1.80;;;9.00;99.90;;;;;;5049735;28;20218;-87
2020/12/18 11:32:08;;;;;;;6.28;1.58;;;9.00;99.90;;;;;;5051423;28;20020;-92
2020/12/18 11:34:34;;;;;;;4.75;1.63;;;9.10;99.90;;;;;;5048063;28;20033;-90
2020/12/18 11:37:00;;;;;;;5.35;1.85;;;9.10;99.90;;;;;;5050694;28;20051;-88
2020/12/18 11:39:26;;;;;;;4.60;1.08;;;9.20;99.90;;;;;;5056016;28;20504;-88
2020/12/18 11:41:52;;;;;;;4.72;1.08;;;9.20;99.90;;;;;;5067061;28;20028;-89
2020/12/18 11:44:18;;;;;;;5.10;1.30;;;9.20;99.90;;;;;;5067506;28;20033;-88
2020/12/18 11:46:47;;;;;;;5.20;1.23;;;9.30;99.90;;;;;;5065525;28;20026;-88
2020/12/18 11:49:13;;;;;;;4.00;0.70;;;9.30;99.90;;;;;;5064135;28;20024;-88
2020/12/18 11:51:39;;;;;;;4.63;0.80;;;9.30;99.90;;;;;;5049725;28;20127;-88
2020/12/18 11:54:04;;;;;;;5.25;1.38;;;9.30;99.90;;;;;;5067185;28;20074;-89
2020/12/18 11:56:30;;;;;;;4.13;0.80;;;9.40;99.90;;;;;;5065274;28;20020;-88
2020/12/18 11:58:56;;;;;;;6.63;0.82;;;9.40;99.90;;;;;;5064281;28;20041;-88
2020/12/18 12:01:22;;;;;;;2.58;0.80;;;9.40;99.90;;;;;;5064572;28;20028;-88
2020/12/18 12:03:49;;;;;;;5.70;1.33;;;9.40;99.90;;;;;;5054943;28;20407;-89
2020/12/18 12:06:15;;;;;;;4.28;1.33;;;9.40;99.90;;;;;;5045904;28;20063;-89
2020/12/18 12:08:41;;;;;;;3.65;1.17;;;9.40;99.90;;;;;;5043541;28;20028;-89
2020/12/18 12:11:08;;;;;;;3.60;0.95;;;9.40;99.90;;;;;;5049514;28;20028;-89
2020/12/18 12:13:34;;;;;;;7.40;2.13;;;9.50;99.90;;;;;;5046227;28;20040;-89
2020/12/18 12:16:00;;;;;;;5.30;1.10;;;9.50;99.90;;;;;;5059510;28;20032;-88
2020/12/18 12:18:25;;;;;;;4.50;1.20;;;9.60;99.90;;;;;;5050975;28;20029;-91
2020/12/18 12:20:51;;;;;;;4.72;0.95;;;9.60;99.90;;;;;;5053006;28;20124;-87
2020/12/18 12:23:17;;;;;;;5.78;1.05;;;9.60;99.90;;;;;;5065717;28;20032;-88
2020/12/18 12:25:43;;;;;;;4.25;0.70;;;9.70;99.90;;;;;;5067138;28;20147;-88
2020/12/18 12:28:08;;;;;;;3.88;1.00;;;9.70;99.90;;;;;;5064796;28;20132;-88
2020/12/18 12:30:34;;;;;;;4.53;0.60;;;9.80;99.90;;;;;;5065070;28;20052;-88
2020/12/18 12:32:59;;;;;;;2.13;0.60;;;9.80;99.90;;;;;;5064004;28;20032;-87
2020/12/18 12:35:26;;;;;;;2.30;0.75;;;9.70;99.90;;;;;;5063444;28;20036;-89
2020/12/18 12:37:52;;;;;;;6.40;0.70;;;9.80;99.90;;;;;;5067206;28;20029;-87
2020/12/18 12:40:18;;;;;;;10.68;1.00;;;9.90;99.90;;;;;;5067187;28;20056;-87
2020/12/18 12:42:44;;;;;;;3.95;0.80;;;9.90;99.90;;;;;;5049734;28;20045;-87
2020/12/18 12:45:10;;;;;;;2.60;0.63;;;10.00;99.90;;;;;;5060627;28;20104;-90
2020/12/18 12:47:38;;;;;;;4.10;0.75;;;10.00;99.90;;;;;;5040056;28;20029;-86
2020/12/18 12:50:05;;;;;;;3.90;0.60;;;10.00;99.90;;;;;;5072551;28;20047;-88
2020/12/18 12:52:32;;;;;;;6.90;1.00;;;10.00;99.90;;;;;;5049422;28;20032;-87
2020/12/18 12:54:57;;;;;;;3.83;0.50;;;10.10;99.90;;;;;;5065267;28;20056;-90
2020/12/18 12:57:23;;;;;;;4.45;0.80;;;10.20;99.90;;;;;;5048111;28;20036;-87
2020/12/18 12:59:49;;;;;;;3.47;0.50;;;10.20;99.90;;;;;;5065681;28;20049;-88
2020/12/18 13:02:14;;;;;;;5.38;0.63;;;10.10;99.90;;;;;;5066347;28;20036;-88
2020/12/18 13:04:40;;;;;;;3.20;0.50;;;10.10;99.90;;;;;;5039855;28;20104;-88
2020/12/18 13:07:05;;;;;;;4.63;0.52;;;10.10;99.90;;;;;;5063118;28;20088;-87
2020/12/18 13:09:31;;;;;;;4.85;0.50;;;10.20;99.90;;;;;;5049934;28;20086;-89
2020/12/18 13:11:57;;;;;;;6.40;1.25;;;10.10;99.90;;;;;;5058496;28;20476;-88
2020/12/18 13:14:23;;;;;;;3.05;0.55;;;10.20;99.90;;;;;;5032944;28;20472;-88
2020/12/18 13:16:49;;;;;;;1.77;0.50;;;10.20;99.90;;;;;;5066082;28;20130;-88